Time;durP1;ratioP1;P1;durP2;ratioP2;P2;SDS_P1;SDS_P2;PMS_P1;PMS_P2;Temp;Humidity;BMP_temperature;BMP_pressure;BME280_temperature;BME280_humidity;BME280_pressure;Samples;Min_cycle;Max_cycle;Signal;HPM_P1;HPM_P2
2022/12/30 00:01:47;;;;;;;4.30;3.30;;;9.20;99.90;;;;;;5091495;28;20197;-71
2022/12/30 00:04:16;;;;;;;3.87;3.23;;;9.20;99.90;;;;;;5091515;28;21010;-71
2022/12/30 00:06:47;;;;;;;3.63;2.90;;;9.20;99.90;;;;;;5091367;28;20221;-71
2022/12/30 00:09:16;;;;;;;5.33;3.43;;;9.30;99.90;;;;;;5091440;28;20203;-75
2022/12/30 00:11:44;;;;;;;7.63;3.50;;;9.30;99.90;;;;;;5091806;28;20188;-72
2022/12/30 00:33:56;;;;;;;4.10;3.37;;;9.40;99.90;;;;;;5095313;28;20204;-70
2022/12/30 00:36:26;;;;;;;4.50;3.67;;;9.40;99.90;;;;;;5093476;28;20212;-70
2022/12/30 00:38:56;;;;;;;4.00;3.50;;;9.40;99.90;;;;;;5094919;28;20701;-75
2022/12/30 00:44:11;;;;;;;5.27;3.87;;;9.40;99.90;;;;;;5094792;28;20201;-78
2022/12/30 00:46:41;;;;;;;3.97;3.57;;;9.40;99.90;;;;;;5094718;28;20224;-76
2022/12/30 00:57:31;;;;;;;4.80;4.33;;;9.30;99.90;;;;;;5094601;28;20221;-77
2022/12/30 01:00:00;;;;;;;5.30;3.90;;;9.20;99.90;;;;;;5094592;28;20590;-75
2022/12/30 01:02:29;;;;;;;9.20;4.33;;;9.20;99.90;;;;;;5094455;28;20712;-71
2022/12/30 01:04:59;;;;;;;5.07;3.37;;;9.20;99.90;;;;;;5094608;28;20197;-78
2022/12/30 01:07:28;;;;;;;5.93;4.37;;;9.20;99.90;;;;;;5094429;28;20234;-78
2022/12/30 01:09:58;;;;;;;5.27;4.27;;;9.20;99.90;;;;;;5094351;28;20686;-75
2022/12/30 01:12:27;;;;;;;5.33;3.83;;;9.20;99.90;;;;;;5094150;28;20725;-76
2022/12/30 01:14:58;;;;;;;6.03;4.03;;;9.20;99.90;;;;;;5094372;28;20759;-71
2022/12/30 01:17:29;;;;;;;7.60;4.47;;;9.20;99.90;;;;;;5094102;28;20208;-74
2022/12/30 01:20:00;;;;;;;5.57;4.50;;;9.10;99.90;;;;;;5094207;28;20197;-74
2022/12/30 01:22:29;;;;;;;7.17;4.07;;;9.20;99.90;;;;;;5094529;28;20205;-75
2022/12/30 01:24:58;;;;;;;4.77;3.80;;;9.20;99.90;;;;;;5093931;28;20189;-77
2022/12/30 01:27:27;;;;;;;9.00;4.13;;;9.10;99.90;;;;;;5093514;28;20286;-69
2022/12/30 01:29:56;;;;;;;6.00;3.90;;;9.00;99.90;;;;;;5094033;28;20735;-70
2022/12/30 01:32:25;;;;;;;5.63;3.77;;;9.00;99.90;;;;;;5093789;28;20217;-71
2022/12/30 01:34:54;;;;;;;4.87;4.47;;;8.90;99.90;;;;;;5093862;28;20201;-72
2022/12/30 01:37:26;;;;;;;8.07;4.97;;;9.00;99.90;;;;;;5093595;28;20215;-74
2022/12/30 01:39:55;;;;;;;7.37;4.37;;;9.00;99.90;;;;;;5093719;28;20196;-74
2022/12/30 01:42:25;;;;;;;6.10;4.20;;;9.00;99.90;;;;;;5093519;28;20192;-69
2022/12/30 01:44:59;;;;;;;8.03;3.93;;;9.00;99.90;;;;;;5093573;28;20209;-76
2022/12/30 01:47:38;;;;;;;3.93;3.50;;;9.00;99.90;;;;;;5093421;28;20637;-75
2022/12/30 01:50:22;;;;;;;7.13;4.17;;;9.10;99.90;;;;;;5093464;28;20227;-75
2022/12/30 01:52:58;;;;;;;4.10;3.70;;;9.00;99.90;;;;;;5091752;28;20201;-73
2022/12/30 01:55:31;;;;;;;6.00;4.10;;;9.00;99.90;;;;;;5093250;28;20193;-72
2022/12/30 01:58:02;;;;;;;5.47;3.90;;;9.10;99.90;;;;;;5093516;28;20200;-71
2022/12/30 02:00:31;;;;;;;5.53;3.93;;;9.00;99.90;;;;;;5093533;28;20296;-70
2022/12/30 02:03:00;;;;;;;7.27;3.87;;;9.00;99.90;;;;;;5093484;28;20201;-73
2022/12/30 02:05:33;;;;;;;4.17;3.43;;;9.00;99.90;;;;;;5093565;28;20837;-76
2022/12/30 02:08:10;;;;;;;5.43;3.90;;;9.00;99.90;;;;;;5093276;28;20220;-76
2022/12/30 02:10:41;;;;;;;5.83;3.30;;;9.00;99.90;;;;;;5093232;28;20226;-71
2022/12/30 02:13:13;;;;;;;9.10;5.47;;;8.90;99.90;;;;;;5092675;28;20240;-72
2022/12/30 02:15:53;;;;;;;6.30;3.37;;;9.00;99.90;;;;;;5092938;28;20200;-73
2022/12/30 02:18:31;;;;;;;3.50;3.20;;;8.90;99.90;;;;;;5092941;28;20189;-74
2022/12/30 02:21:32;;;;;;;3.73;3.17;;;9.00;99.90;;;;;;5092921;28;20204;-70
2022/12/30 02:24:45;;;;;;;5.13;3.27;;;8.90;99.90;;;;;;5090999;28;20227;-76
2022/12/30 02:27:47;;;;;;;5.07;2.93;;;9.00;99.90;;;;;;5092716;28;20240;-75
2022/12/30 02:30:21;;;;;;;7.17;3.30;;;9.00;99.90;;;;;;5092798;28;20197;-70
2022/12/30 02:33:11;;;;;;;4.30;3.40;;;8.90;99.90;;;;;;5092615;28;20189;-71
2022/12/30 02:35:52;;;;;;;4.60;3.40;;;9.00;99.90;;;;;;5092802;28;20193;-69
2022/12/30 02:38:29;;;;;;;5.07;2.87;;;9.00;99.90;;;;;;5092378;28;20269;-70
2022/12/30 02:46:43;;;;;;;9.43;3.60;;;9.10;99.90;;;;;;5092425;28;20216;-69
2022/12/30 02:49:14;;;;;;;5.23;3.37;;;9.10;99.90;;;;;;5092417;28;20662;-74
2022/12/30 02:54:32;;;;;;;6.23;2.63;;;9.10;99.90;;;;;;5092499;28;20200;-70
2022/12/30 02:57:01;;;;;;;5.77;3.20;;;9.10;99.90;;;;;;5092504;28;20204;-70
2022/12/30 03:05:38;;;;;;;4.03;2.83;;;9.20;99.90;;;;;;5092356;28;20611;-77
2022/12/30 03:08:14;;;;;;;5.23;3.20;;;9.20;99.90;;;;;;5092219;28;20634;-70
2022/12/30 03:13:39;;;;;;;3.47;3.17;;;9.20;99.90;;;;;;5091728;28;20229;-70
2022/12/30 03:16:14;;;;;;;5.23;3.17;;;9.30;99.90;;;;;;5091917;28;20206;-71
2022/12/30 03:18:44;;;;;;;4.73;3.23;;;9.30;99.90;;;;;;5091397;28;20195;-70
2022/12/30 03:21:16;;;;;;;3.60;3.30;;;9.30;99.90;;;;;;5091985;28;20200;-71
2022/12/30 03:29:29;;;;;;;4.30;3.00;;;9.30;99.90;;;;;;5091988;28;20257;-70
2022/12/30 03:31:58;;;;;;;2.93;2.63;;;9.20;99.90;;;;;;5091780;28;20208;-77
2022/12/30 03:34:29;;;;;;;4.27;3.10;;;9.30;99.90;;;;;;5091778;28;20197;-77
2022/12/30 03:37:04;;;;;;;5.10;3.50;;;9.30;99.90;;;;;;5091803;28;20559;-70
2022/12/30 03:39:37;;;;;;;4.97;3.30;;;9.30;99.90;;;;;;5091954;28;20196;-70
2022/12/30 03:42:07;;;;;;;5.33;3.37;;;9.30;99.90;;;;;;5091583;28;20258;-73
2022/12/30 03:44:40;;;;;;;5.07;3.13;;;9.40;99.90;;;;;;5091654;28;20188;-71
2022/12/30 03:47:13;;;;;;;5.50;3.80;;;9.40;99.90;;;;;;5091809;28;20228;-69
2022/12/30 03:49:42;;;;;;;4.03;3.33;;;9.30;99.90;;;;;;5091805;28;20555;-71
2022/12/30 03:52:14;;;;;;;3.70;3.23;;;9.30;99.90;;;;;;5095727;28;20552;-78
2022/12/30 03:54:43;;;;;;;5.63;3.43;;;9.30;99.90;;;;;;5095934;28;20262;-77
2022/12/30 03:57:12;;;;;;;4.60;3.27;;;9.30;99.90;;;;;;5095715;28;20412;-70
2022/12/30 03:59:41;;;;;;;4.03;3.63;;;9.30;99.90;;;;;;5095709;28;20201;-70
2022/12/30 04:02:10;;;;;;;4.97;3.60;;;9.30;99.90;;;;;;5095631;28;20200;-75
2022/12/30 04:04:39;;;;;;;4.23;3.27;;;9.30;99.90;;;;;;5095648;28;20218;-77
2022/12/30 04:07:08;;;;;;;3.97;3.50;;;9.20;99.90;;;;;;5095434;28;20307;-71
2022/12/30 04:09:38;;;;;;;4.07;3.50;;;9.20;99.90;;;;;;5095439;28;20196;-78
2022/12/30 04:12:07;;;;;;;4.57;4.20;;;9.30;99.90;;;;;;5095228;28;20226;-78
2022/12/30 04:14:38;;;;;;;6.33;3.10;;;9.30;99.90;;;;;;5095214;28;20228;-71
2022/12/30 04:17:07;;;;;;;4.77;3.13;;;9.30;99.90;;;;;;5095129;28;20209;-70
2022/12/30 04:19:36;;;;;;;4.23;2.77;;;9.30;99.90;;;;;;5094978;28;20204;-71
2022/12/30 04:22:06;;;;;;;3.43;3.13;;;9.30;99.90;;;;;;5095244;28;20293;-73
2022/12/30 04:24:34;;;;;;;3.40;3.07;;;9.30;99.90;;;;;;5095307;28;20549;-71
2022/12/30 04:27:05;;;;;;;3.47;3.27;;;9.30;99.90;;;;;;5095130;28;20662;-77
2022/12/30 04:29:34;;;;;;;5.47;3.20;;;9.30;99.90;;;;;;5095109;28;20204;-71
2022/12/30 04:32:02;;;;;;;4.20;3.50;;;9.30;99.90;;;;;;5095093;28;20197;-75
2022/12/30 04:34:31;;;;;;;4.27;3.50;;;9.20;99.90;;;;;;5095015;28;20201;-75
2022/12/30 04:37:00;;;;;;;4.13;2.73;;;9.20;99.90;;;;;;5094970;28;20198;-76
2022/12/30 04:39:29;;;;;;;3.83;3.53;;;9.10;99.90;;;;;;5095106;28;20200;-76
2022/12/30 04:41:58;;;;;;;5.47;3.30;;;9.10;99.90;;;;;;5094667;28;20201;-72
2022/12/30 04:44:28;;;;;;;5.37;3.50;;;9.10;99.90;;;;;;5095115;28;20242;-76
2022/12/30 04:46:57;;;;;;;7.93;3.83;;;9.00;99.90;;;;;;5094965;28;20197;-77
2022/12/30 04:49:26;;;;;;;4.63;3.03;;;8.90;99.90;;;;;;5094621;28;20561;-77
2022/12/30 04:51:55;;;;;;;5.40;3.50;;;8.90;99.90;;;;;;5094439;28;20547;-74
2022/12/30 04:54:24;;;;;;;3.87;3.47;;;8.90;99.90;;;;;;5094593;28;20250;-75
2022/12/30 04:56:52;;;;;;;3.30;3.10;;;8.90;99.90;;;;;;5094650;28;20234;-71
2022/12/30 04:59:21;;;;;;;4.60;3.30;;;8.90;99.90;;;;;;5094531;28;20271;-73
2022/12/30 05:01:52;;;;;;;5.17;3.17;;;8.90;99.90;;;;;;5093925;28;20816;-73
2022/12/30 05:04:21;;;;;;;4.03;3.33;;;8.90;99.90;;;;;;5094081;28;20200;-71
2022/12/30 05:06:50;;;;;;;4.53;3.27;;;8.90;99.90;;;;;;5094724;28;20618;-72
2022/12/30 05:09:19;;;;;;;4.23;3.33;;;8.90;99.90;;;;;;5094317;28;20224;-73
2022/12/30 05:11:47;;;;;;;4.00;3.03;;;8.90;99.90;;;;;;5093983;28;20251;-71
2022/12/30 05:14:16;;;;;;;3.27;3.07;;;8.90;99.90;;;;;;5093995;28;20228;-72
2022/12/30 05:16:45;;;;;;;2.60;2.40;;;8.90;99.90;;;;;;5094003;28;20265;-72
2022/12/30 05:19:15;;;;;;;2.90;2.60;;;8.70;99.90;;;;;;5094036;28;20624;-79
2022/12/30 05:21:44;;;;;;;3.13;2.67;;;8.70;99.90;;;;;;5093990;28;21063;-73
2022/12/30 05:27:00;;;;;;;3.27;2.70;;;8.70;99.90;;;;;;5094124;28;20662;-76
2022/12/30 05:29:28;;;;;;;4.30;3.37;;;8.60;99.90;;;;;;5092303;28;20649;-77
2022/12/30 05:31:57;;;;;;;5.07;3.03;;;8.60;99.90;;;;;;5093469;28;20227;-75
2022/12/30 05:34:27;;;;;;;3.63;3.10;;;8.60;99.90;;;;;;5093443;28;20197;-71
2022/12/30 05:36:56;;;;;;;3.07;2.80;;;8.60;99.90;;;;;;5093730;28;20201;-75
2022/12/30 05:39:25;;;;;;;8.53;3.47;;;8.60;99.90;;;;;;5093479;28;20658;-78
2022/12/30 05:41:54;;;;;;;6.93;3.33;;;8.60;99.90;;;;;;5093257;28;20402;-72
2022/12/30 05:44:23;;;;;;;4.73;3.30;;;8.60;99.90;;;;;;5093185;28;20193;-76
2022/12/30 05:46:52;;;;;;;4.40;3.80;;;8.50;99.90;;;;;;5093896;28;20269;-76
2022/12/30 05:49:20;;;;;;;4.87;3.33;;;8.50;99.90;;;;;;5093549;28;20222;-76
2022/12/30 05:51:51;;;;;;;4.07;3.30;;;8.50;99.90;;;;;;5093627;28;20767;-71
2022/12/30 05:54:20;;;;;;;5.40;3.53;;;8.50;99.90;;;;;;5093448;28;20189;-77
2022/12/30 05:56:48;;;;;;;5.73;3.30;;;8.50;99.90;;;;;;5093436;28;20543;-73
2022/12/30 05:59:17;;;;;;;3.97;3.33;;;8.50;99.90;;;;;;5093611;28;20543;-72
2022/12/30 06:01:46;;;;;;;4.33;2.87;;;8.50;99.90;;;;;;5093325;28;20188;-72
2022/12/30 06:04:17;;;;;;;6.53;4.87;;;8.50;99.90;;;;;;5093139;28;20595;-75
2022/12/30 06:06:46;;;;;;;5.40;3.30;;;8.60;99.90;;;;;;5093136;28;20197;-76
2022/12/30 06:09:16;;;;;;;5.73;3.40;;;8.60;99.90;;;;;;5093065;28;20693;-74
2022/12/30 06:11:45;;;;;;;7.10;3.53;;;8.60;99.90;;;;;;5092983;28;20609;-72
2022/12/30 06:14:15;;;;;;;9.27;4.00;;;8.60;99.90;;;;;;5091873;28;20234;-69
2022/12/30 06:16:44;;;;;;;4.87;3.50;;;8.60;99.90;;;;;;5092968;28;20208;-70
2022/12/30 06:19:13;;;;;;;5.13;3.23;;;8.60;99.90;;;;;;5092696;28;20294;-70
2022/12/30 06:21:42;;;;;;;7.67;3.57;;;8.60;99.90;;;;;;5092839;28;20203;-73
2022/12/30 06:24:11;;;;;;;6.97;3.33;;;8.50;99.90;;;;;;5092832;28;20271;-73
2022/12/30 06:26:41;;;;;;;4.93;3.70;;;8.50;99.90;;;;;;5092851;28;20605;-71
2022/12/30 06:29:10;;;;;;;3.57;3.03;;;8.50;99.90;;;;;;5092469;28;20224;-70
2022/12/30 06:31:39;;;;;;;8.17;3.47;;;8.50;99.90;;;;;;5092778;28;20282;-75
2022/12/30 06:34:08;;;;;;;4.97;3.37;;;8.50;99.90;;;;;;5092504;28;20715;-77
2022/12/30 06:36:36;;;;;;;6.70;3.80;;;8.50;99.90;;;;;;5092472;28;20681;-70
2022/12/30 06:39:05;;;;;;;8.67;3.37;;;8.50;99.90;;;;;;5092481;28;20245;-76
2022/12/30 06:41:34;;;;;;;7.83;2.90;;;8.40;99.90;;;;;;5092624;28;20208;-70
2022/12/30 06:44:05;;;;;;;6.47;3.10;;;8.40;99.90;;;;;;5092814;28;20548;-71
2022/12/30 06:46:33;;;;;;;11.43;3.80;;;8.30;99.90;;;;;;5092461;28;20203;-72
2022/12/30 06:49:02;;;;;;;4.40;2.80;;;8.40;99.90;;;;;;5092346;28;20215;-72
2022/12/30 06:51:31;;;;;;;6.97;3.57;;;8.40;99.90;;;;;;5092427;28;20209;-70
2022/12/30 06:54:00;;;;;;;6.80;3.17;;;8.40;99.90;;;;;;5092581;28;20254;-74
2022/12/30 06:56:29;;;;;;;5.80;3.27;;;8.40;99.90;;;;;;5092183;28;20192;-69
2022/12/30 06:58:58;;;;;;;11.47;3.87;;;8.40;99.90;;;;;;5092261;28;20265;-69
2022/12/30 07:01:29;;;;;;;5.30;3.30;;;8.40;99.90;;;;;;5092180;28;20626;-70
2022/12/30 07:03:58;;;;;;;5.30;3.00;;;8.40;99.90;;;;;;5091998;28;20680;-75
2022/12/30 07:06:27;;;;;;;8.23;4.37;;;8.40;99.90;;;;;;5092042;28;20211;-71
2022/12/30 07:08:56;;;;;;;5.90;3.63;;;8.40;99.90;;;;;;5092189;28;20232;-72
2022/12/30 07:11:25;;;;;;;7.83;3.50;;;8.30;99.90;;;;;;5092225;28;20616;-70
2022/12/30 07:13:54;;;;;;;7.37;3.63;;;8.30;99.90;;;;;;5091688;28;20275;-72
2022/12/30 07:16:23;;;;;;;6.30;3.23;;;8.30;99.90;;;;;;5091952;28;20248;-71
2022/12/30 07:18:53;;;;;;;7.80;3.10;;;8.40;99.90;;;;;;5092247;28;20192;-72
2022/12/30 07:21:22;;;;;;;4.57;3.33;;;8.40;99.90;;;;;;5091920;28;20200;-70
2022/12/30 07:23:51;;;;;;;7.17;3.50;;;8.40;99.90;;;;;;5091856;28;20222;-71
2022/12/30 07:26:20;;;;;;;7.43;3.30;;;8.40;99.90;;;;;;5091556;28;20191;-71
2022/12/30 07:28:51;;;;;;;8.57;4.70;;;8.40;99.90;;;;;;5091656;28;20192;-72
2022/12/30 07:31:21;;;;;;;5.77;3.43;;;8.30;99.90;;;;;;5091805;28;20196;-72
2022/12/30 07:33:50;;;;;;;9.17;3.57;;;8.40;99.90;;;;;;5091778;28;20192;-69
2022/12/30 07:36:20;;;;;;;8.13;3.20;;;8.40;99.90;;;;;;5090748;28;20222;-71
2022/12/30 07:38:49;;;;;;;12.00;3.77;;;8.40;99.90;;;;;;5091985;28;20197;-75
2022/12/30 07:41:18;;;;;;;11.10;3.73;;;8.30;99.90;;;;;;5091630;28;20196;-71
2022/12/30 07:43:47;;;;;;;6.97;3.37;;;8.30;99.90;;;;;;5091672;28;20207;-72
2022/12/30 07:46:15;;;;;;;5.77;3.67;;;8.40;99.90;;;;;;5091332;28;20200;-71
2022/12/30 07:48:44;;;;;;;8.37;4.03;;;8.40;99.90;;;;;;5091414;28;20262;-69
2022/12/30 07:51:15;;;;;;;8.17;3.73;;;8.40;99.90;;;;;;5091587;28;20253;-72
2022/12/30 07:53:46;;;;;;;10.60;3.40;;;8.40;99.90;;;;;;5091471;28;20192;-71
2022/12/30 07:56:15;;;;;;;11.63;3.73;;;8.40;99.90;;;;;;5091494;28;20201;-71
2022/12/30 07:58:44;;;;;;;9.10;3.50;;;8.50;99.90;;;;;;5091379;28;20201;-72
2022/12/30 08:01:14;;;;;;;6.03;3.70;;;8.50;99.90;;;;;;5091485;28;20666;-72
2022/12/30 08:03:43;;;;;;;6.53;3.60;;;8.50;99.90;;;;;;5091539;28;20203;-73
2022/12/30 08:06:15;;;;;;;9.97;3.67;;;8.40;99.90;;;;;;5091325;28;20204;-70
2022/12/30 08:08:46;;;;;;;5.97;3.67;;;8.40;99.90;;;;;;5091435;28;20651;-70
2022/12/30 08:11:16;;;;;;;8.70;4.27;;;8.50;99.90;;;;;;5091179;28;20289;-73
2022/12/30 08:13:45;;;;;;;7.40;3.83;;;8.50;99.90;;;;;;5091126;28;20255;-73
2022/12/30 08:16:17;;;;;;;8.53;4.00;;;8.50;99.90;;;;;;5089968;28;20618;-71
2022/12/30 08:18:46;;;;;;;6.17;3.80;;;8.60;99.90;;;;;;5091361;28;20707;-73
2022/12/30 08:21:17;;;;;;;5.70;4.10;;;8.60;99.90;;;;;;5091140;28;20275;-72
2022/12/30 08:23:47;;;;;;;10.13;4.60;;;8.50;99.90;;;;;;5090015;28;20740;-71
2022/12/30 08:26:19;;;;;;;11.37;4.77;;;8.50;99.90;;;;;;5087619;28;20694;-73
2022/12/30 08:28:48;;;;;;;8.03;4.37;;;8.60;99.90;;;;;;5091292;28;20207;-71
2022/12/30 08:31:20;;;;;;;8.53;4.10;;;8.50;99.90;;;;;;5090723;28;20224;-70
2022/12/30 08:33:49;;;;;;;12.43;4.43;;;8.60;99.90;;;;;;5091138;28;20196;-71
2022/12/30 08:36:21;;;;;;;9.93;4.30;;;8.60;99.90;;;;;;5090974;28;20743;-71
2022/12/30 08:38:54;;;;;;;9.97;3.80;;;8.60;99.90;;;;;;5094164;28;20204;-71
2022/12/30 14:04:45;;;;;;;10.10;4.67;;;8.50;99.90;;;;;;5109730;27;21137;-78
2022/12/30 14:07:47;;;;;;;13.50;4.40;;;9.30;90.70;;;;;;5108684;28;20196;-80
2022/12/30 14:10:43;;;;;;;12.87;4.40;;;9.10;89.20;;;;;;5106871;28;20211;-78
2022/12/30 14:13:32;;;;;;;13.20;5.43;;;9.00;90.00;;;;;;5109017;28;20249;-77
2022/12/30 14:16:04;;;;;;;11.03;5.07;;;9.10;89.70;;;;;;5109553;28;20213;-77
2022/12/30 14:18:40;;;;;;;13.87;4.50;;;9.10;87.30;;;;;;5109203;28;20275;-78
2022/12/30 14:21:13;;;;;;;11.83;5.00;;;9.10;85.90;;;;;;5109394;28;20279;-80
2022/12/30 14:23:45;;;;;;;10.70;4.40;;;9.10;87.10;;;;;;5109322;28;20228;-76
2022/12/30 14:26:42;;;;;;;9.40;4.93;;;9.10;86.50;;;;;;5109392;28;20198;-75
2022/12/30 14:29:33;;;;;;;11.93;4.67;;;9.10;85.80;;;;;;5107414;28;20201;-75
2022/12/30 14:32:04;;;;;;;12.63;4.77;;;9.10;83.90;;;;;;5026337;28;20235;-75
2022/12/30 14:34:36;;;;;;;13.23;5.73;;;9.10;85.10;;;;;;5026431;28;20253;-75
2022/12/30 14:37:21;;;;;;;10.70;5.00;;;9.10;85.80;;;;;;5014968;28;20690;-77
2022/12/30 14:39:50;;;;;;;15.23;5.30;;;9.10;85.50;;;;;;5022796;28;20282;-78
2022/12/30 14:42:24;;;;;;;10.33;4.80;;;9.10;85.60;;;;;;5020216;28;20644;-76
2022/12/30 14:44:55;;;;;;;12.33;5.23;;;9.20;85.60;;;;;;5026100;28;20329;-77
2022/12/30 14:47:40;;;;;;;16.17;5.17;;;9.10;83.40;;;;;;5022067;28;20536;-75
2022/12/30 14:50:10;;;;;;;10.80;4.23;;;9.00;84.30;;;;;;5016357;28;20211;-74
2022/12/30 14:52:50;;;;;;;13.67;5.60;;;8.90;84.70;;;;;;5024205;28;20207;-75
2022/12/30 14:55:23;;;;;;;11.13;4.23;;;8.80;86.00;;;;;;5026091;28;20231;-74
2022/12/30 14:58:00;;;;;;;14.37;5.17;;;8.80;86.00;;;;;;5025607;28;20207;-82
2022/12/30 15:00:37;;;;;;;10.13;5.67;;;8.70;87.80;;;;;;5023702;28;20325;-78
2022/12/30 15:03:15;;;;;;;7.90;4.90;;;8.70;88.30;;;;;;5024475;28;20565;-75
2022/12/30 15:05:51;;;;;;;9.03;5.20;;;8.70;88.50;;;;;;5025316;28;20645;-72
2022/12/30 15:08:22;;;;;;;12.63;5.70;;;8.60;87.90;;;;;;5041381;28;20682;-77
2022/12/30 15:10:55;;;;;;;10.17;5.00;;;8.70;87.40;;;;;;5106726;28;20217;-75
2022/12/30 15:13:27;;;;;;;9.27;5.17;;;8.50;88.00;;;;;;5107431;28;20195;-76
2022/12/30 15:15:58;;;;;;;9.40;4.97;;;8.50;88.70;;;;;;5091209;28;20203;-73
2022/12/30 15:18:31;;;;;;;13.20;5.77;;;8.40;89.50;;;;;;5090567;28;20200;-73
2022/12/30 15:21:13;;;;;;;14.47;6.17;;;8.30;90.00;;;;;;5091938;28;20692;-72
2022/12/30 15:23:43;;;;;;;17.17;7.03;;;8.40;90.00;;;;;;5084711;28;20221;-76
2022/12/30 15:26:17;;;;;;;11.33;7.30;;;8.30;90.50;;;;;;5093662;28;20286;-75
2022/12/30 15:28:46;;;;;;;18.13;9.10;;;8.30;90.40;;;;;;5078932;28;20205;-75
2022/12/30 15:31:19;;;;;;;22.40;9.20;;;8.30;90.80;;;;;;5079590;28;20251;-75
2022/12/30 15:33:55;;;;;;;17.43;8.03;;;8.30;90.50;;;;;;5093422;28;20189;-75
2022/12/30 15:36:25;;;;;;;15.30;8.30;;;8.30;90.80;;;;;;5093431;28;20705;-75
2022/12/30 15:38:59;;;;;;;14.87;7.57;;;8.20;91.50;;;;;;5093133;28;20212;-77
2022/12/30 15:41:30;;;;;;;16.23;7.53;;;8.20;91.60;;;;;;5093213;28;20207;-75
2022/12/30 15:44:02;;;;;;;12.30;7.80;;;8.10;91.70;;;;;;5093179;28;20221;-77
2022/12/30 15:46:34;;;;;;;19.27;8.70;;;8.10;92.00;;;;;;5093088;28;20583;-76
2022/12/30 15:49:13;;;;;;;14.57;8.17;;;8.10;91.80;;;;;;5079471;28;20202;-73
2022/12/30 15:51:45;;;;;;;16.67;8.10;;;8.10;91.80;;;;;;5073215;28;20239;-75
2022/12/30 15:54:26;;;;;;;15.60;8.23;;;8.00;92.30;;;;;;5072875;28;20189;-77
2022/12/30 15:56:56;;;;;;;16.23;8.40;;;7.90;92.60;;;;;;5072314;28;20208;-74
2022/12/30 15:59:30;;;;;;;16.90;7.13;;;7.80;93.40;;;;;;5072021;28;20193;-74
2022/12/30 16:02:06;;;;;;;15.00;8.27;;;7.70;94.10;;;;;;5076349;28;20839;-77
2022/12/30 16:04:42;;;;;;;15.77;7.30;;;7.80;93.30;;;;;;5078657;28;20241;-72
2022/12/30 16:07:24;;;;;;;17.13;7.20;;;7.80;93.00;;;;;;5071635;28;20292;-73
2022/12/30 16:10:00;;;;;;;16.47;6.77;;;7.70;94.20;;;;;;5073234;28;20208;-76
2022/12/30 16:12:37;;;;;;;18.47;7.53;;;7.50;95.30;;;;;;5092364;28;20196;-74
2022/12/30 16:15:18;;;;;;;23.63;7.53;;;7.60;94.70;;;;;;5093405;28;20203;-75
2022/12/30 16:17:58;;;;;;;16.17;7.10;;;7.50;94.60;;;;;;5093201;28;20216;-75
2022/12/30 16:20:31;;;;;;;13.53;6.93;;;7.60;94.70;;;;;;5092954;28;20669;-76
2022/12/30 16:23:02;;;;;;;12.37;6.93;;;7.50;94.70;;;;;;5092934;28;20209;-76
2022/12/30 16:25:36;;;;;;;17.97;7.40;;;7.40;95.40;;;;;;5092523;28;20223;-76
2022/12/30 16:28:06;;;;;;;14.53;7.00;;;7.30;95.70;;;;;;5092912;28;20200;-74
2022/12/30 16:30:38;;;;;;;13.23;7.87;;;7.30;96.10;;;;;;5092269;28;20196;-78
2022/12/30 16:33:18;;;;;;;9.70;7.30;;;7.30;96.30;;;;;;5092982;28;20196;-75
2022/12/30 16:35:49;;;;;;;14.23;8.70;;;7.20;96.60;;;;;;5092955;28;20185;-75
2022/12/30 16:38:19;;;;;;;17.37;8.07;;;7.20;97.40;;;;;;5092754;28;20189;-74
2022/12/30 16:40:49;;;;;;;15.60;8.23;;;7.10;97.50;;;;;;5092494;28;20201;-78
2022/12/30 16:43:18;;;;;;;12.77;7.47;;;7.10;97.30;;;;;;5093015;28;20200;-76
2022/12/30 16:45:47;;;;;;;20.70;8.87;;;7.10;98.30;;;;;;5092185;28;20231;-76
2022/12/30 16:48:16;;;;;;;21.53;8.33;;;7.00;98.80;;;;;;5093052;28;20196;-77
2022/12/30 16:50:46;;;;;;;16.57;8.10;;;7.00;98.90;;;;;;5092592;28;20218;-77
2022/12/30 16:53:21;;;;;;;17.37;8.03;;;6.90;99.50;;;;;;5092618;28;20216;-76
2022/12/30 16:55:51;;;;;;;16.33;8.27;;;7.00;98.90;;;;;;5090386;28;20203;-75
2022/12/30 16:58:20;;;;;;;15.27;7.00;;;7.10;98.80;;;;;;5092395;28;20205;-76
2022/12/30 17:00:54;;;;;;;17.20;8.13;;;6.90;99.80;;;;;;5092012;28;20196;-77
2022/12/30 17:03:26;;;;;;;16.33;7.47;;;6.90;99.90;;;;;;5092190;28;20311;-75
2022/12/30 17:05:55;;;;;;;12.17;7.23;;;6.90;99.90;;;;;;5092450;28;20254;-76
2022/12/30 17:08:27;;;;;;;11.37;7.80;;;6.90;99.90;;;;;;5092382;28;20208;-76
2022/12/30 17:10:59;;;;;;;15.13;8.17;;;7.00;99.90;;;;;;5091989;28;20214;-76
2022/12/30 17:13:31;;;;;;;15.10;8.20;;;7.00;99.70;;;;;;5091845;28;20188;-76
2022/12/30 17:16:01;;;;;;;19.33;8.03;;;7.00;99.90;;;;;;5092395;28;20197;-73
2022/12/30 17:18:31;;;;;;;21.50;8.70;;;6.90;99.90;;;;;;5092191;28;20677;-75
2022/12/30 17:21:02;;;;;;;20.43;9.07;;;6.90;99.90;;;;;;5091858;28;21093;-75
2022/12/30 17:23:35;;;;;;;15.67;9.03;;;6.90;99.90;;;;;;5091918;28;20258;-74
2022/12/30 17:26:07;;;;;;;14.73;7.63;;;6.90;99.90;;;;;;5091588;28;20783;-74
2022/12/30 17:28:36;;;;;;;18.87;7.87;;;6.90;99.90;;;;;;5091444;28;20212;-75
2022/12/30 17:31:06;;;;;;;13.87;7.80;;;6.90;99.90;;;;;;5091216;28;20916;-75
2022/12/30 17:33:35;;;;;;;19.17;8.13;;;6.90;99.90;;;;;;5071495;28;20231;-74
2022/12/30 17:36:04;;;;;;;15.03;7.73;;;7.00;99.90;;;;;;5071705;28;20772;-76
2022/12/30 17:38:33;;;;;;;16.50;7.50;;;7.00;99.90;;;;;;5071481;28;20193;-77
2022/12/30 17:41:02;;;;;;;14.63;7.50;;;6.90;99.90;;;;;;5071656;28;20227;-78
2022/12/30 17:43:33;;;;;;;19.23;7.67;;;6.80;99.90;;;;;;5071534;28;20197;-74
2022/12/30 17:46:01;;;;;;;15.07;7.20;;;6.80;99.90;;;;;;5071534;28;20290;-73
2022/12/30 17:48:30;;;;;;;18.50;6.87;;;6.80;99.90;;;;;;5071610;28;20197;-77
2022/12/30 17:51:03;;;;;;;16.97;8.23;;;6.80;99.90;;;;;;5071539;28;20725;-75
2022/12/30 17:53:32;;;;;;;16.93;8.13;;;6.80;99.90;;;;;;5070234;28;20538;-78
2022/12/30 17:56:01;;;;;;;13.23;7.50;;;6.80;99.90;;;;;;5071692;28;20276;-79
2022/12/30 17:58:30;;;;;;;21.67;8.97;;;6.90;99.90;;;;;;5071092;28;20204;-77
2022/12/30 18:01:00;;;;;;;27.03;10.10;;;6.80;99.90;;;;;;5071548;28;20668;-78
2022/12/30 18:03:30;;;;;;;19.30;9.47;;;6.70;99.90;;;;;;5070069;28;20721;-77
2022/12/30 18:05:59;;;;;;;17.40;8.33;;;6.80;99.90;;;;;;5076460;28;20227;-78
2022/12/30 18:08:27;;;;;;;17.37;8.77;;;6.80;99.90;;;;;;5091526;28;20190;-77
2022/12/30 18:11:02;;;;;;;13.30;7.53;;;6.80;99.90;;;;;;5091812;28;20188;-77
2022/12/30 18:13:31;;;;;;;24.03;10.13;;;6.80;99.90;;;;;;5091380;28;20249;-79
2022/12/30 18:16:04;;;;;;;19.10;10.03;;;6.90;99.90;;;;;;5092016;28;20197;-79
2022/12/30 18:18:33;;;;;;;18.43;8.40;;;7.00;99.90;;;;;;5091852;28;20196;-77
2022/12/30 18:21:05;;;;;;;14.83;7.07;;;6.90;99.90;;;;;;5091891;28;20207;-79
2022/12/30 18:23:34;;;;;;;20.17;7.63;;;7.00;99.90;;;;;;5091784;28;20392;-77
2022/12/30 18:26:06;;;;;;;16.77;8.47;;;6.90;99.90;;;;;;5091128;28;20650;-78
2022/12/30 18:28:35;;;;;;;18.20;8.37;;;6.90;99.90;;;;;;5091701;28;20265;-79
2022/12/30 18:31:10;;;;;;;17.67;7.53;;;6.90;99.90;;;;;;5086936;28;20251;-68
2022/12/30 18:33:39;;;;;;;14.10;6.67;;;7.00;99.90;;;;;;5091029;28;20223;-75
2022/12/30 18:36:11;;;;;;;15.27;7.33;;;6.90;99.90;;;;;;5089738;28;20205;-74
2022/12/30 18:38:41;;;;;;;15.63;7.80;;;6.90;99.90;;;;;;5089866;28;20211;-75
2022/12/30 18:41:11;;;;;;;18.07;7.70;;;6.80;99.90;;;;;;5090560;28;20210;-76
2022/12/30 18:43:40;;;;;;;14.53;7.60;;;6.90;99.90;;;;;;5091242;28;20663;-76
2022/12/30 18:46:14;;;;;;;20.37;8.23;;;7.00;99.90;;;;;;5091105;28;20220;-74
2022/12/30 18:48:43;;;;;;;12.50;6.77;;;6.90;99.90;;;;;;5091110;28;20196;-73
2022/12/30 18:51:13;;;;;;;14.63;7.50;;;6.80;99.90;;;;;;5094804;28;20654;-73
2022/12/30 18:53:41;;;;;;;14.67;7.97;;;6.80;99.90;;;;;;5094673;28;20254;-73
2022/12/30 18:56:12;;;;;;;17.83;8.77;;;6.90;99.90;;;;;;5092942;28;20211;-76
2022/12/30 18:58:42;;;;;;;29.30;10.80;;;6.90;99.90;;;;;;5094982;28;20189;-73
2022/12/30 19:01:16;;;;;;;16.77;8.67;;;6.90;99.90;;;;;;5094763;28;20280;-77
2022/12/30 19:03:46;;;;;;;15.43;8.13;;;6.90;99.90;;;;;;5094726;28;20642;-75
2022/12/30 19:06:15;;;;;;;15.67;7.30;;;7.00;99.90;;;;;;5090596;28;20782;-76
2022/12/30 19:08:44;;;;;;;17.07;8.53;;;7.00;99.90;;;;;;5085976;28;20204;-75
2022/12/30 19:11:15;;;;;;;21.43;7.93;;;7.00;99.90;;;;;;5073762;28;20209;-77
2022/12/30 19:13:45;;;;;;;14.93;6.80;;;7.00;99.90;;;;;;5092638;28;20303;-76
2022/12/30 19:16:19;;;;;;;14.73;6.93;;;6.90;99.90;;;;;;5093606;28;20280;-74
2022/12/30 19:18:50;;;;;;;11.70;5.67;;;7.00;99.90;;;;;;5093974;28;20287;-73
2022/12/30 19:21:22;;;;;;;14.63;7.03;;;7.00;99.90;;;;;;5093647;28;20230;-75
2022/12/30 19:23:51;;;;;;;11.60;5.90;;;7.00;99.90;;;;;;5093527;28;20197;-74
2022/12/30 19:26:21;;;;;;;14.80;7.07;;;7.10;99.90;;;;;;5093848;28;20228;-73
2022/12/30 19:28:52;;;;;;;21.63;9.00;;;7.10;99.90;;;;;;5093182;28;20620;-74
2022/12/30 19:31:24;;;;;;;17.63;6.93;;;7.10;99.90;;;;;;5091807;28;20760;-73
2022/12/30 19:33:55;;;;;;;14.17;6.20;;;7.10;99.90;;;;;;5075343;28;20197;-74
2022/12/30 19:36:26;;;;;;;12.03;6.37;;;7.10;99.90;;;;;;5081567;28;20289;-77